Time;durP1;ratioP1;P1;durP2;ratioP2;P2;SDS_P1;SDS_P2;PMS_P1;PMS_P2;Temp;Humidity;BMP_temperature;BMP_pressure;BME280_temperature;BME280_humidity;BME280_pressure;Samples;Min_cycle;Max_cycle;Signal;HPM_P1;HPM_P2
2022/03/03 00:01:14;;;;;;;16.07;8.50;;;;;;;-1.14;55.72;99332.50;5120140;27;40835;-75
2022/03/03 00:03:44;;;;;;;16.03;7.97;;;;;;;-1.24;55.40;99327.38;5155586;27;42481;-74
2022/03/03 00:06:11;;;;;;;11.37;6.60;;;;;;;-1.19;55.50;99336.84;5137394;27;41042;-74
2022/03/03 00:08:39;;;;;;;11.73;7.30;;;;;;;-1.19;55.58;99335.97;5119719;27;39907;-75
2022/03/03 00:11:07;;;;;;;15.10;7.53;;;;;;;-1.20;57.08;99324.72;5136489;27;40587;-75
2022/03/03 00:13:34;;;;;;;14.23;7.93;;;;;;;-1.22;58.17;99321.28;5134283;27;41697;-75
2022/03/03 00:16:04;;;;;;;14.70;8.40;;;;;;;-1.23;56.97;99324.75;5134777;27;43130;-74
2022/03/03 00:18:31;;;;;;;15.50;8.87;;;;;;;-1.25;56.52;99336.91;5134429;27;40065;-75
2022/03/03 00:21:01;;;;;;;12.73;6.97;;;;;;;-1.29;56.29;99337.78;5153239;27;42411;-74
2022/03/03 00:23:28;;;;;;;17.73;9.13;;;;;;;-1.35;55.97;99343.03;5168974;27;43538;-74
2022/03/03 00:25:56;;;;;;;12.93;6.63;;;;;;;-1.36;56.51;99338.69;5155309;27;41867;-74
2022/03/03 00:28:24;;;;;;;15.60;7.83;;;;;;;-1.38;56.23;99335.28;5120716;27;40187;-74
2022/03/03 00:30:51;;;;;;;14.53;7.53;;;;;;;-1.57;57.57;99303.34;5138429;27;41682;-74
2022/03/03 00:33:19;;;;;;;15.67;9.17;;;;;;;-1.54;57.33;99307.66;5156541;27;42729;-74
2022/03/03 00:35:47;;;;;;;16.80;8.30;;;;;;;-1.43;57.24;99324.03;5138208;27;41188;-75
2022/03/03 00:38:16;;;;;;;18.50;9.30;;;;;;;-1.44;57.24;99322.31;5172484;27;40932;-75
2022/03/03 00:40:44;;;;;;;16.07;9.30;;;;;;;-1.48;57.12;99329.25;5137985;27;41800;-74
2022/03/03 00:43:12;;;;;;;13.57;7.47;;;;;;;-1.61;56.60;99321.59;5120680;27;41435;-75
2022/03/03 00:45:46;;;;;;;16.80;9.83;;;;;;;-1.56;56.84;99340.56;5134876;27;42129;-74
2022/03/03 00:48:13;;;;;;;18.63;7.67;;;;;;;-1.59;56.94;99335.38;5137877;27;39864;-75
2022/03/03 00:50:42;;;;;;;14.47;8.17;;;;;;;-1.70;56.77;99324.22;5172720;27;41758;-74
2022/03/03 00:53:10;;;;;;;13.10;7.53;;;;;;;-1.77;56.58;99319.94;5137221;27;41725;-74
2022/03/03 00:55:39;;;;;;;11.87;6.90;;;;;;;-1.74;56.48;99333.78;5156410;27;41891;-74
2022/03/03 00:58:07;;;;;;;15.03;9.00;;;;;;;-1.77;56.48;99332.91;5137838;27;39840;-74
2022/03/03 01:00:41;;;;;;;11.00;5.90;;;;;;;-1.77;56.66;99327.72;5120467;27;42783;-74
2022/03/03 01:03:08;;;;;;;8.43;6.77;;;;;;;-1.81;56.41;99322.53;5137170;27;43511;-74
2022/03/03 01:05:43;;;;;;;13.43;7.13;;;;;;;-1.91;56.56;99312.22;5156109;27;42613;-74
2022/03/03 01:08:10;;;;;;;12.77;6.97;;;;;;;-1.88;56.63;99320.88;5156153;27;39922;-74
2022/03/03 01:10:40;;;;;;;9.90;6.87;;;;;;;-1.89;56.78;99316.53;5120324;27;41625;-74
2022/03/03 01:13:08;;;;;;;12.77;6.80;;;;;;;-1.91;56.60;99318.28;5137554;27;43105;-75
2022/03/03 01:15:36;;;;;;;13.03;7.50;;;;;;;-1.92;57.09;99313.09;5156228;27;42274;-74
2022/03/03 01:18:04;;;;;;;7.97;6.00;;;;;;;-1.95;57.22;99310.50;5172026;27;39905;-75
2022/03/03 01:20:32;;;;;;;11.57;7.00;;;;;;;-1.92;57.14;99319.16;5137771;27;41791;-75
2022/03/03 01:22:59;;;;;;;11.77;6.53;;;;;;;-1.92;57.71;99313.09;5136999;27;43812;-76
2022/03/03 01:25:27;;;;;;;11.73;6.53;;;;;;;-1.94;58.01;99307.91;5120136;27;40546;-74
2022/03/03 01:28:02;;;;;;;14.33;7.00;;;;;;;-1.94;57.62;99302.72;5149484;27;41033;-75
2022/03/03 01:30:30;;;;;;;11.27;5.60;;;;;;;-1.98;57.26;99306.19;5137307;27;40802;-75
2022/03/03 01:32:58;;;;;;;10.43;7.70;;;;;;;-1.99;57.20;99309.69;5137186;27;43769;-74
2022/03/03 01:35:25;;;;;;;10.83;6.60;;;;;;;-2.00;57.05;99313.16;5119618;27;41994;-76
2022/03/03 01:37:53;;;;;;;15.90;7.20;;;;;;;-2.11;57.64;99294.16;5119330;27;40001;-74
2022/03/03 01:40:22;;;;;;;12.27;6.27;;;;;;;-2.03;57.48;99309.69;5119492;27;41903;-75
2022/03/03 01:42:50;;;;;;;12.23;6.57;;;;;;;-2.05;57.35;99312.28;5136824;27;43537;-74
2022/03/03 01:45:19;;;;;;;8.83;5.27;;;;;;;-2.06;57.77;99297.59;5155628;27;42322;-74
2022/03/03 01:47:52;;;;;;;9.07;5.77;;;;;;;-2.08;57.67;99293.28;5152847;27;39892;-75
2022/03/03 01:50:19;;;;;;;13.43;6.50;;;;;;;-2.10;57.70;99297.63;5137258;27;42473;-75
2022/03/03 01:52:54;;;;;;;12.90;5.97;;;;;;;-2.11;57.64;99296.78;5152104;27;43830;-74
2022/03/03 01:55:22;;;;;;;10.50;6.23;;;;;;;-2.11;58.04;99288.13;5136501;27;42773;-75
2022/03/03 01:57:51;;;;;;;7.23;4.80;;;;;;;-2.14;57.84;99286.41;5154047;27;39215;-75
2022/03/03 02:00:21;;;;;;;16.37;6.83;;;;;;;-2.15;57.75;99287.25;5136753;27;41979;-74
2022/03/03 02:02:48;;;;;;;8.70;5.63;;;;;;;-2.20;57.60;99276.91;5154564;27;42630;-74
2022/03/03 02:05:16;;;;;;;9.60;4.60;;;;;;;-2.23;57.85;99281.25;5137181;27;41696;-74
2022/03/03 02:07:45;;;;;;;9.47;4.97;;;;;;;-2.25;57.81;99281.25;5119033;27;40814;-75
2022/03/03 02:10:12;;;;;;;9.40;6.07;;;;;;;-2.32;57.67;99284.72;5119570;27;41671;-75
2022/03/03 02:12:40;;;;;;;11.67;5.27;;;;;;;-2.31;57.77;99289.06;5155129;27;42803;-74
2022/03/03 02:15:16;;;;;;;10.63;7.23;;;;;;;-2.33;58.00;99292.50;5119403;27;43592;-75
2022/03/03 02:17:52;;;;;;;8.60;6.33;;;;;;;-2.37;57.82;99290.81;5152392;27;40421;-75
2022/03/03 02:20:22;;;;;;;9.73;5.80;;;;;;;-2.42;58.28;99277.00;5119399;27;43130;-74
2022/03/03 02:22:50;;;;;;;9.40;4.80;;;;;;;-2.42;57.99;99277.88;5154768;27;42508;-75
2022/03/03 02:25:18;;;;;;;11.13;6.33;;;;;;;-2.56;58.04;99264.94;5155117;27;42285;-75
2022/03/03 02:27:47;;;;;;;12.10;7.00;;;;;;;-2.50;58.58;99276.19;5153611;27;38973;-75
2022/03/03 02:30:16;;;;;;;9.93;5.97;;;;;;;-2.47;58.33;99287.38;5136331;27;40524;-74
2022/03/03 02:32:45;;;;;;;8.90;5.33;;;;;;;-2.51;58.23;99282.22;5118821;27;42751;-75
2022/03/03 02:35:13;;;;;;;10.70;6.07;;;;;;;-2.50;58.11;99281.38;5171237;27;43129;-74
2022/03/03 02:37:44;;;;;;;14.33;6.73;;;;;;;-2.53;58.70;99280.50;5136096;27;42158;-74
2022/03/03 02:40:19;;;;;;;11.87;6.37;;;;;;;-2.56;63.24;99245.94;5136431;27;41058;-75
2022/03/03 02:42:51;;;;;;;16.00;7.00;;;;;;;-2.56;62.66;99258.91;5136052;27;44219;-74
2022/03/03 02:45:20;;;;;;;14.53;7.23;;;;;;;-2.59;61.65;99254.56;5170956;27;42877;-75
2022/03/03 02:47:49;;;;;;;11.63;5.73;;;;;;;-2.57;61.46;99251.97;5117892;27;38934;-76
2022/03/03 02:50:18;;;;;;;11.83;6.53;;;;;;;-2.70;61.38;99230.44;5136022;27;42051;-74
2022/03/03 02:52:48;;;;;;;14.93;6.73;;;;;;;-2.75;60.90;99226.16;5135765;27;42760;-76
2022/03/03 02:55:16;;;;;;;12.67;7.43;;;;;;;-2.61;60.60;99240.78;5135996;27;43213;-74
2022/03/03 02:57:56;;;;;;;13.07;6.30;;;;;;;-2.64;60.68;99238.19;5135568;27;41748;-75
2022/03/03 03:00:25;;;;;;;9.97;6.17;;;;;;;-2.68;60.65;99233.03;5150857;27;42751;-76
2022/03/03 03:02:53;;;;;;;8.07;5.30;;;;;;;-2.72;60.48;99226.97;5135252;27;43147;-75
2022/03/03 03:05:21;;;;;;;7.67;5.60;;;;;;;-2.80;60.33;99223.56;5118368;27;40698;-76
2022/03/03 03:07:51;;;;;;;10.87;5.57;;;;;;;-2.74;60.79;99236.50;5154105;27;40925;-76
2022/03/03 03:10:18;;;;;;;11.67;5.87;;;;;;;-2.75;61.58;99237.38;5118431;27;42853;-75
2022/03/03 03:12:46;;;;;;;14.23;6.03;;;;;;;-2.77;61.32;99244.28;5135581;27;42118;-76
2022/03/03 03:15:15;;;;;;;11.43;5.57;;;;;;;-2.79;60.98;99250.34;5118699;27;41942;-75
2022/03/03 03:17:43;;;;;;;10.30;6.30;;;;;;;-2.82;60.62;99248.59;5154187;27;39989;-75
2022/03/03 03:20:11;;;;;;;8.67;4.83;;;;;;;-2.84;61.00;99239.97;5118373;27;40185;-76
2022/03/03 03:22:39;;;;;;;12.53;6.80;;;;;;;-2.84;60.81;99239.16;5117776;27;43617;-75
2022/03/03 03:25:11;;;;;;;11.13;6.07;;;;;;;-2.87;60.69;99242.59;5135765;27;43155;-74
2022/03/03 03:27:46;;;;;;;9.90;5.27;;;;;;;-2.89;61.83;99231.38;5132687;27;40342;-74
2022/03/03 03:30:13;;;;;;;11.37;6.70;;;;;;;-2.94;62.90;99218.41;5135078;27;41898;-75
2022/03/03 03:32:41;;;;;;;10.03;6.43;;;;;;;-3.07;62.80;99197.72;5135256;27;43098;-75
2022/03/03 03:35:10;;;;;;;10.37;5.50;;;;;;;-2.92;62.73;99221.00;5170295;27;42301;-75
2022/03/03 03:37:38;;;;;;;12.93;5.73;;;;;;;-2.92;62.39;99223.59;5147488;27;40695;-74
2022/03/03 03:40:10;;;;;;;12.83;5.87;;;;;;;-3.08;61.88;99198.59;5149178;27;41582;-75
2022/03/03 03:42:38;;;;;;;11.40;6.13;;;;;;;-2.97;61.69;99217.59;5114533;27;42139;-74
2022/03/03 03:45:06;;;;;;;7.30;5.13;;;;;;;-3.02;61.67;99208.94;5114400;27;42216;-75
2022/03/03 03:47:41;;;;;;;13.87;7.23;;;;;;;-2.99;61.87;99206.34;5114155;27;38971;-75
2022/03/03 03:50:13;;;;;;;8.07;5.63;;;;;;;-2.99;61.90;99211.53;5131960;27;41833;-76
2022/03/03 03:52:47;;;;;;;12.93;4.83;;;;;;;-3.03;61.50;99204.63;5131124;27;43623;-75
2022/03/03 03:55:15;;;;;;;9.87;5.13;;;;;;;-3.13;61.46;99193.44;5132509;27;42204;-75
2022/03/03 03:57:43;;;;;;;14.87;7.87;;;;;;;-3.09;61.38;99205.50;5114619;27;39903;-76
2022/03/03 04:00:14;;;;;;;12.20;7.47;;;;;;;-3.09;61.38;99204.66;5132613;27;41758;-76
2022/03/03 04:02:43;;;;;;;11.13;6.47;;;;;;;-3.20;61.28;99185.66;5132179;27;42417;-74
2022/03/03 04:05:13;;;;;;;10.27;5.97;;;;;;;-3.20;61.40;99180.47;5114383;27;41083;-75
2022/03/03 04:07:41;;;;;;;11.97;7.80;;;;;;;-3.15;61.79;99186.53;5097132;27;39860;-76
2022/03/03 04:10:10;;;;;;;13.17;5.80;;;;;;;-3.31;62.04;99159.81;5131513;27;40934;-74
2022/03/03 04:12:39;;;;;;;13.20;6.37;;;;;;;-3.18;61.82;99183.94;5113862;27;43285;-76
2022/03/03 04:15:07;;;;;;;12.93;7.13;;;;;;;-3.38;61.60;99152.91;5132672;27;42175;-75
2022/03/03 04:17:35;;;;;;;21.27;8.33;;;;;;;-3.19;62.71;99159.75;5131195;27;39841;-76
2022/03/03 04:20:03;;;;;;;15.17;7.80;;;;;;;-3.21;62.56;99155.47;5113954;27;43640;-76
2022/03/03 04:22:31;;;;;;;13.93;6.67;;;;;;;-3.22;62.63;99157.22;5096984;27;42891;-75
2022/03/03 04:24:59;;;;;;;12.97;7.47;;;;;;;-3.23;62.79;99149.44;5113870;27;41208;-75
2022/03/03 04:27:27;;;;;;;13.07;7.73;;;;;;;-3.23;62.93;99144.25;5114385;27;38943;-76
2022/03/03 04:29:56;;;;;;;10.63;6.70;;;;;;;-3.31;63.42;99132.19;5113916;27;41749;-73
2022/03/03 04:32:23;;;;;;;13.97;7.17;;;;;;;-3.24;63.15;99137.34;5113867;27;42753;-75
2022/03/03 04:34:51;;;;;;;13.63;8.10;;;;;;;-3.21;63.62;99129.59;5113696;27;41316;-75
2022/03/03 04:37:19;;;;;;;12.67;7.47;;;;;;;-3.19;63.87;99112.28;5131138;27;40156;-76
2022/03/03 04:39:46;;;;;;;14.40;7.30;;;;;;;-3.18;63.83;99106.25;5113860;27;41830;-76
2022/03/03 04:42:14;;;;;;;13.67;6.13;;;;;;;-3.18;64.11;99091.56;5113730;27;43284;-75
2022/03/03 04:44:42;;;;;;;11.23;6.37;;;;;;;-3.17;64.51;99118.31;5130594;27;43258;-74
2022/03/03 04:47:11;;;;;;;11.00;6.40;;;;;;;-3.16;64.73;99151.13;5131944;27;39795;-74
2022/03/03 04:49:39;;;;;;;9.20;5.73;;;;;;;-3.43;64.91;99119.25;5113594;27;42554;-75
2022/03/03 04:52:07;;;;;;;9.73;6.83;;;;;;;-3.13;66.86;99154.59;5130945;27;43494;-75
2022/03/03 04:54:35;;;;;;;11.17;7.37;;;;;;;-3.15;67.12;99142.50;5096135;27;41294;-75
2022/03/03 04:57:03;;;;;;;14.23;6.67;;;;;;;-3.10;67.31;99153.72;5113622;27;40081;-75
2022/03/03 04:59:31;;;;;;;13.33;7.87;;;;;;;-3.10;67.68;99151.13;5113585;27;41760;-75
2022/03/03 05:01:59;;;;;;;8.60;4.77;;;;;;;-3.08;66.68;99154.53;5113362;27;42951;-76
2022/03/03 05:04:28;;;;;;;10.07;6.00;;;;;;;-3.10;66.10;99156.31;5113007;27;41130;-76
2022/03/03 05:07:06;;;;;;;11.93;6.00;;;;;;;-3.13;65.65;99158.91;5111442;27;40327;-74
2022/03/03 05:09:33;;;;;;;7.40;5.57;;;;;;;-3.28;65.28;99142.53;5113083;27;41922;-76
2022/03/03 05:12:01;;;;;;;10.13;5.47;;;;;;;-3.17;65.51;99146.81;5115788;27;42987;-76
2022/03/03 05:14:29;;;;;;;9.80;5.73;;;;;;;-3.19;65.61;99135.59;5099716;27;43087;-74
2022/03/03 05:16:56;;;;;;;12.17;6.93;;;;;;;-3.23;65.49;99147.72;5117126;27;39636;-75
2022/03/03 05:19:24;;;;;;;11.03;5.83;;;;;;;-3.26;65.24;99151.16;5133708;27;42864;-74
2022/03/03 05:21:53;;;;;;;12.53;7.63;;;;;;;-3.27;65.52;99152.03;5116786;27;41648;-75
2022/03/03 05:24:21;;;;;;;14.90;6.50;;;;;;;-3.31;65.31;99152.91;5116393;27;42275;-76
2022/03/03 05:26:48;;;;;;;8.90;6.33;;;;;;;-3.29;66.50;99156.34;5134549;27;41145;-74
2022/03/03 05:29:16;;;;;;;18.20;8.57;;;;;;;-3.32;67.92;99130.44;5133656;27;41769;-76
2022/03/03 05:31:43;;;;;;;11.70;6.37;;;;;;;-3.41;67.17;99121.84;5120440;27;42761;-74
2022/03/03 05:34:11;;;;;;;9.20;6.30;;;;;;;-3.29;66.52;99164.13;5137182;27;40794;-74
2022/03/03 05:36:42;;;;;;;11.37;6.87;;;;;;;-3.32;66.29;99171.88;5137149;27;38730;-75
2022/03/03 05:39:11;;;;;;;10.37;6.20;;;;;;;-3.47;66.75;99133.09;5119724;27;42039;-75
2022/03/03 05:41:39;;;;;;;9.47;5.70;;;;;;;-3.37;66.20;99158.09;5136870;27;41931;-74
2022/03/03 05:44:11;;;;;;;14.50;7.53;;;;;;;-3.48;66.04;99133.97;5119899;27;42450;-75
2022/03/03 05:46:48;;;;;;;12.03;5.97;;;;;;;-3.36;66.51;99152.06;5134079;27;39796;-75
2022/03/03 05:49:18;;;;;;;8.23;6.27;;;;;;;-3.41;66.17;99140.84;5119819;27;42615;-76
2022/03/03 05:51:46;;;;;;;8.53;6.37;;;;;;;-3.41;65.75;99140.84;5155690;27;42929;-75
2022/03/03 05:54:15;;;;;;;7.80;4.87;;;;;;;-3.37;65.45;99141.69;5118625;27;41043;-77
2022/03/03 05:56:48;;;;;;;8.03;5.50;;;;;;;-3.38;65.44;99134.81;5133811;27;40216;-75
2022/03/03 05:59:16;;;;;;;8.87;5.27;;;;;;;-3.38;65.26;99130.47;5155326;27;42469;-75
2022/03/03 06:01:45;;;;;;;12.60;6.73;;;;;;;-3.39;65.25;99139.13;5136778;27;44076;-76
2022/03/03 06:04:15;;;;;;;10.97;5.73;;;;;;;-3.34;65.35;99145.13;5136423;27;41483;-75
2022/03/03 06:06:54;;;;;;;8.43;5.63;;;;;;;-3.42;65.26;99123.59;5168701;27;39629;-75
2022/03/03 06:09:30;;;;;;;8.40;5.33;;;;;;;-3.24;64.96;99158.06;5136333;27;41102;-75
2022/03/03 06:12:06;;;;;;;8.37;5.33;;;;;;;-3.20;64.74;99165.81;5152181;27;42700;-75
2022/03/03 06:14:39;;;;;;;9.17;5.77;;;;;;;-3.17;64.62;99172.72;5136508;27;41417;-76
2022/03/03 06:17:08;;;;;;;11.33;5.43;;;;;;;-3.16;64.45;99167.53;5152199;27;40833;-76
2022/03/03 06:19:41;;;;;;;10.07;5.67;;;;;;;-3.04;64.21;99182.19;5136560;27;41460;-76
2022/03/03 06:22:15;;;;;;;8.20;5.40;;;;;;;-2.99;64.19;99185.63;5119749;27;41829;-74
2022/03/03 06:24:44;;;;;;;7.43;4.93;;;;;;;-2.96;64.18;99183.00;5136567;27;43150;-76
2022/03/03 06:27:11;;;;;;;6.43;4.50;;;;;;;-2.98;64.21;99166.63;5136613;27;39865;-75
2022/03/03 06:29:46;;;;;;;9.87;4.83;;;;;;;-2.90;63.84;99180.41;5118876;27;42554;-75
2022/03/03 06:32:14;;;;;;;8.43;5.73;;;;;;;-2.88;63.78;99177.81;5119202;27;41688;-74
2022/03/03 06:34:48;;;;;;;8.57;5.00;;;;;;;-2.88;63.71;99183.88;5136381;27;43115;-75
2022/03/03 06:37:15;;;;;;;8.30;5.10;;;;;;;-2.83;63.63;99178.63;5136282;27;40136;-77
2022/03/03 06:39:45;;;;;;;9.53;5.83;;;;;;;-2.85;63.60;99170.91;5154791;27;42673;-75
2022/03/03 06:42:12;;;;;;;8.70;5.30;;;;;;;-2.82;63.62;99173.47;5136164;27;42844;-75
2022/03/03 06:44:40;;;;;;;8.70;5.20;;;;;;;-2.84;63.76;99162.22;5118575;27;41320;-74
2022/03/03 06:47:08;;;;;;;11.07;5.83;;;;;;;-2.74;63.42;99171.72;5118888;27;40044;-76
2022/03/03 06:49:42;;;;;;;8.67;4.97;;;;;;;-2.73;63.40;99164.81;5135636;27;41790;-74
2022/03/03 06:52:16;;;;;;;9.27;5.60;;;;;;;-2.70;63.35;99178.59;5154500;27;43782;-77
2022/03/03 06:54:53;;;;;;;8.80;5.37;;;;;;;-2.65;63.29;99176.84;5135609;27;41262;-76
2022/03/03 06:57:22;;;;;;;10.70;6.47;;;;;;;-2.58;63.65;99180.25;5135883;27;40565;-75
2022/03/03 06:59:52;;;;;;;5.77;4.60;;;;;;;-2.10;63.29;99186.06;5134881;27;40952;-74
2022/03/03 07:02:20;;;;;;;8.40;6.47;;;;;;;-0.72;61.90;99177.81;5154271;27;43455;-75
2022/03/03 07:04:53;;;;;;;9.87;6.83;;;;;;;0.82;59.81;99193.69;5135668;27;42612;-76
2022/03/03 07:07:22;;;;;;;12.30;6.90;;;;;;;2.39;56.63;99211.28;5118340;27;41752;-75
2022/03/03 07:09:55;;;;;;;13.80;6.73;;;;;;;4.02;53.53;99222.56;5135463;27;40640;-75
2022/03/03 07:12:24;;;;;;;9.77;6.33;;;;;;;5.96;50.69;99222.91;5154233;27;42793;-76
2022/03/03 07:14:51;;;;;;;9.60;6.13;;;;;;;6.78;48.71;99238.06;5154147;27;42893;-75
2022/03/03 07:17:34;;;;;;;12.83;6.23;;;;;;;8.01;47.06;99247.63;5135938;27;40994;-75
2022/03/03 07:20:07;;;;;;;10.00;7.07;;;;;;;9.63;44.38;99255.47;5151040;27;42683;-75
2022/03/03 07:22:57;;;;;;;8.20;6.77;;;;;;;12.16;40.25;99256.81;5132255;27;42819;-76
2022/03/03 07:25:34;;;;;;;7.23;6.13;;;;;;;14.33;36.83;99275.94;5151735;27;42390;-75
2022/03/03 07:28:04;;;;;;;8.20;6.83;;;;;;;13.76;36.34;99257.75;5154523;27;39772;-76
2022/03/03 07:30:32;;;;;;;9.03;6.90;;;;;;;12.09;37.41;99285.56;5122032;27;42401;-76
2022/03/03 07:33:06;;;;;;;8.33;6.13;;;;;;;11.12;37.51;99289.59;5138817;27;42872;-76
2022/03/03 07:35:35;;;;;;;10.90;6.37;;;;;;;11.57;36.68;99285.19;5135410;27;41975;-76
2022/03/03 07:38:12;;;;;;;10.43;6.77;;;;;;;10.65;37.35;99283.47;5107346;27;40145;-74
2022/03/03 07:40:49;;;;;;;9.33;6.77;;;;;;;9.80;38.17;99286.31;5097085;27;41791;-74
2022/03/03 07:43:18;;;;;;;10.33;7.63;;;;;;;9.50;39.01;99282.63;5132658;27;43101;-75
2022/03/03 07:45:47;;;;;;;9.70;6.83;;;;;;;8.97;39.42;99278.25;5133087;27;42282;-76
2022/03/03 07:48:16;;;;;;;11.27;7.57;;;;;;;8.28;40.19;99273.56;5114045;27;39103;-76
2022/03/03 07:50:44;;;;;;;13.20;7.97;;;;;;;7.83;41.32;99265.13;5114339;27;41527;-76
2022/03/03 07:53:14;;;;;;;9.50;7.67;;;;;;;7.14;42.22;99252.34;5113594;27;44272;-74
2022/03/03 07:55:53;;;;;;;13.53;8.37;;;;;;;6.49;43.51;99255.03;5110631;27;42296;-75
2022/03/03 07:58:23;;;;;;;11.13;7.33;;;;;;;5.93;44.75;99252.81;5114599;27;40132;-74
2022/03/03 08:00:53;;;;;;;11.37;7.23;;;;;;;5.51;45.78;99244.69;5097059;27;40764;-75
2022/03/03 08:03:22;;;;;;;11.60;7.53;;;;;;;5.45;46.32;99238.78;5113543;27;44101;-75
2022/03/03 08:05:56;;;;;;;12.40;7.00;;;;;;;6.01;46.25;99256.00;5148992;27;40949;-73
2022/03/03 08:08:27;;;;;;;11.37;7.17;;;;;;;6.71;44.25;99253.25;5132316;27;39989;-76
2022/03/03 08:11:00;;;;;;;13.20;7.87;;;;;;;6.88;43.96;99255.19;5114118;27;41911;-75
2022/03/03 08:13:28;;;;;;;12.77;6.80;;;;;;;7.00;43.88;99265.22;5112142;27;42904;-75
2022/03/03 08:15:57;;;;;;;12.00;6.87;;;;;;;7.28;43.56;99264.06;5131233;27;43092;-74
2022/03/03 08:18:29;;;;;;;9.63;6.10;;;;;;;7.44;44.46;99255.41;5113741;27;40153;-74
2022/03/03 08:20:58;;;;;;;9.90;6.67;;;;;;;8.18;44.63;99248.53;5114268;27;40862;-75
2022/03/03 08:23:26;;;;;;;10.17;6.80;;;;;;;9.83;40.03;99283.50;5132156;27;42708;-74
2022/03/03 08:25:57;;;;;;;8.20;6.33;;;;;;;13.00;36.22;99289.47;5096783;27;41570;-75
2022/03/03 08:28:25;;;;;;;7.93;5.87;;;;;;;16.71;32.05;99318.34;5148266;27;40655;-76
2022/03/03 08:30:57;;;;;;;10.23;7.17;;;;;;;19.66;27.84;99332.97;5132251;27;41773;-73
2022/03/03 08:33:36;;;;;;;8.40;7.10;;;;;;;22.21;23.12;99362.81;5130134;27;42739;-74
2022/03/03 08:36:09;;;;;;;7.80;7.00;;;;;;;22.75;22.79;99361.63;5129264;27;42330;-75
2022/03/03 08:38:39;;;;;;;9.43;7.53;;;;;;;23.08;22.65;99361.81;5130960;27;39881;-73
2022/03/03 08:41:08;;;;;;;8.23;7.23;;;;;;;22.49;22.80;99358.13;5113753;27;41669;-75
2022/03/03 08:43:41;;;;;;;8.67;7.77;;;;;;;22.73;22.52;99362.81;5113446;27;42089;-73
2022/03/03 08:46:10;;;;;;;8.87;7.97;;;;;;;24.56;20.37;99366.22;5097233;27;42316;-73
2022/03/03 08:48:38;;;;;;;8.90;8.00;;;;;;;26.44;19.45;99359.59;5134935;27;39804;-73
2022/03/03 08:51:06;;;;;;;9.50;8.50;;;;;;;27.94;16.52;99392.75;5135639;27;41909;-75
2022/03/03 08:53:33;;;;;;;8.70;7.90;;;;;;;28.77;16.39;99383.81;5133664;27;43266;-75
2022/03/03 08:56:02;;;;;;;9.63;8.63;;;;;;;29.22;15.93;99377.81;5135594;27;43105;-74
2022/03/03 08:58:31;;;;;;;9.77;8.77;;;;;;;29.55;15.76;99358.84;5151370;27;40043;-73
2022/03/03 09:00:58;;;;;;;8.63;7.73;;;;;;;29.03;16.29;99361.34;5135484;27;41713;-74
2022/03/03 09:03:26;;;;;;;9.17;8.23;;;;;;;29.21;15.86;99356.19;5116210;27;42893;-73
2022/03/03 09:05:54;;;;;;;8.87;7.97;;;;;;;29.16;15.81;99348.63;5099997;27;42169;-75
2022/03/03 09:08:22;;;;;;;9.47;8.37;;;;;;;27.09;17.36;99347.13;5135129;27;40009;-74
2022/03/03 09:10:51;;;;;;;9.30;8.20;;;;;;;24.77;19.32;99319.59;5135439;27;41601;-74
2022/03/03 09:13:20;;;;;;;10.03;8.30;;;;;;;22.89;21.41;99295.38;5133176;27;43411;-76
2022/03/03 09:15:50;;;;;;;9.83;8.70;;;;;;;22.24;21.66;99283.41;5116683;27;42668;-76
2022/03/03 09:18:17;;;;;;;9.47;8.37;;;;;;;23.73;20.28;99280.88;5135201;27;40874;-76
2022/03/03 09:20:45;;;;;;;9.67;8.27;;;;;;;24.93;19.23;99283.50;5116628;27;42153;-76
2022/03/03 09:23:12;;;;;;;9.50;8.57;;;;;;;25.62;18.22;99289.88;5116340;27;42064;-74
2022/03/03 09:25:41;;;;;;;9.80;8.17;;;;;;;24.46;18.82;99284.34;5116827;27;43248;-74
2022/03/03 09:28:09;;;;;;;9.30;7.93;;;;;;;23.31;18.37;99294.47;5134712;27;40027;-76
2022/03/03 09:30:37;;;;;;;9.33;8.33;;;;;;;23.80;18.43;99282.72;5116617;27;41614;-73
2022/03/03 09:33:07;;;;;;;9.13;7.70;;;;;;;25.04;17.32;99293.94;5136298;27;42360;-75
2022/03/03 09:35:34;;;;;;;11.40;8.27;;;;;;;25.19;18.04;99259.66;5155626;27;42110;-74
2022/03/03 09:38:03;;;;;;;9.63;8.27;;;;;;;26.26;16.82;99290.31;5155384;27;40062;-73
2022/03/03 09:40:30;;;;;;;9.90;8.90;;;;;;;26.89;15.94;99305.22;5137383;27;41684;-74
2022/03/03 09:43:00;;;;;;;9.73;8.73;;;;;;;27.59;15.59;99301.91;5119482;27;43848;-75
2022/03/03 09:45:29;;;;;;;9.30;7.90;;;;;;;26.96;17.27;99292.59;5126765;27;42226;-75
2022/03/03 09:47:58;;;;;;;8.80;7.83;;;;;;;25.08;17.40;99273.59;5116047;27;40422;-74
2022/03/03 09:50:28;;;;;;;9.70;8.37;;;;;;;23.45;18.73;99274.91;5116097;27;42658;-74
2022/03/03 09:52:56;;;;;;;10.43;8.40;;;;;;;22.37;19.73;99270.34;5134125;27;42653;-74
2022/03/03 09:55:24;;;;;;;9.23;8.30;;;;;;;21.87;21.00;99252.13;5115873;27;43449;-75
2022/03/03 09:57:53;;;;;;;9.07;7.63;;;;;;;21.52;20.63;99253.84;5133780;27;39852;-75
2022/03/03 10:00:21;;;;;;;10.50;8.10;;;;;;;20.61;20.85;99243.31;5115422;27;41642;-74
2022/03/03 10:03:00;;;;;;;9.67;7.33;;;;;;;20.18;21.64;99233.97;5132200;27;41923;-73
2022/03/03 10:05:32;;;;;;;11.67;7.57;;;;;;;21.71;20.45;99252.84;5130236;27;42393;-75
2022/03/03 10:08:01;;;;;;;9.83;7.50;;;;;;;22.58;20.06;99255.41;5131595;27;40081;-75
2022/03/03 10:10:29;;;;;;;8.57;7.40;;;;;;;22.74;19.78;99256.50;5116034;27;42590;-74
2022/03/03 10:12:58;;;;;;;11.83;8.17;;;;;;;22.50;19.13;99255.34;5098356;27;43281;-73
2022/03/03 10:15:27;;;;;;;9.47;7.60;;;;;;;22.26;19.24;99243.59;5150247;27;42913;-74
2022/03/03 10:18:01;;;;;;;11.57;8.00;;;;;;;21.34;20.65;99244.09;5131545;27;39960;-76
2022/03/03 10:20:37;;;;;;;10.80;7.50;;;;;;;20.53;21.15;99248.56;5132833;27;42190;-76
2022/03/03 10:23:09;;;;;;;9.10;7.90;;;;;;;20.78;20.35;99231.69;5114756;27;41394;-74
2022/03/03 10:25:39;;;;;;;10.00;7.20;;;;;;;21.21;21.16;99238.25;5133026;27;42164;-77
2022/03/03 10:28:16;;;;;;;8.47;7.50;;;;;;;22.08;20.57;99228.34;5115636;27;38864;-76
2022/03/03 10:30:59;;;;;;;9.53;8.23;;;;;;;23.17;19.95;99248.19;5112505;27;41743;-75
2022/03/03 10:33:31;;;;;;;10.57;7.60;;;;;;;24.41;18.75;99253.38;5113837;27;42925;-81
2022/03/03 10:36:14;;;;;;;9.77;7.90;;;;;;;25.24;17.57;99249.09;5130950;27;42896;-77
2022/03/03 10:38:53;;;;;;;9.27;7.77;;;;;;;25.91;17.01;99253.84;5132675;27;39932;-77
2022/03/03 10:41:28;;;;;;;9.47;7.97;;;;;;;26.52;17.02;99246.44;5130958;27;41419;-77
2022/03/03 10:43:56;;;;;;;9.23;8.23;;;;;;;27.21;16.24;99241.44;5131204;27;42291;-77
2022/03/03 10:46:23;;;;;;;10.47;8.10;;;;;;;27.95;15.98;99237.31;5149900;27;42355;-77
2022/03/03 10:48:57;;;;;;;9.20;8.30;;;;;;;28.78;15.76;99258.25;5114825;27;39164;-78
2022/03/03 10:51:26;;;;;;;8.97;8.07;;;;;;;29.78;14.25;99253.91;5133915;27;42465;-78
2022/03/03 10:54:10;;;;;;;9.30;7.90;;;;;;;30.34;14.11;99266.06;5113913;27;44929;-78
2022/03/03 10:56:44;;;;;;;8.93;8.03;;;;;;;30.39;14.50;99242.72;5146382;27;42985;-77
2022/03/03 10:59:17;;;;;;;9.47;8.47;;;;;;;31.15;13.48;99273.03;5114528;27;39915;-78
2022/03/03 11:01:46;;;;;;;8.87;8.07;;;;;;;31.22;12.61;99279.28;5132182;27;42814;-78
2022/03/03 11:04:18;;;;;;;9.87;8.43;;;;;;;31.31;13.78;99267.84;5132868;27;43761;-78
2022/03/03 11:06:52;;;;;;;8.77;7.90;;;;;;;31.89;12.84;99280.56;5130377;27;42581;-77
2022/03/03 11:09:20;;;;;;;10.03;8.97;;;;;;;32.03;11.80;99279.38;5113299;27;39732;-77
2022/03/03 11:11:49;;;;;;;9.83;8.93;;;;;;;32.31;12.43;99274.31;5114706;27;41799;-78
2022/03/03 11:14:16;;;;;;;8.82;8.02;;;;;;;33.08;12.15;99281.06;5114816;27;43769;-77
2022/03/03 11:16:46;;;;;;;9.93;8.70;;;;;;;33.69;11.05;99282.75;5133265;27;43969;-78
2022/03/03 11:19:15;;;;;;;10.23;9.13;;;;;;;34.05;11.98;99280.94;5131749;27;40043;-78
2022/03/03 11:21:43;;;;;;;9.75;8.85;;;;;;;34.56;11.45;99272.84;5133368;27;41835;-78
2022/03/03 11:24:18;;;;;;;9.25;8.35;;;;;;;34.20;11.69;99264.81;5133146;27;43540;-78
2022/03/03 11:26:49;;;;;;;9.50;8.60;;;;;;;35.19;11.71;99255.47;5114698;27;44291;-78
2022/03/03 11:29:20;;;;;;;8.82;7.93;;;;;;;36.07;10.59;99258.75;5114366;27;38492;-78
2022/03/03 11:32:02;;;;;;;10.60;8.57;;;;;;;36.65;10.59;99253.56;5114676;27;42060;-78
2022/03/03 11:34:43;;;;;;;9.23;8.32;;;;;;;37.12;10.07;99257.75;5132298;27;42913;-78
2022/03/03 11:37:17;;;;;;;8.60;7.80;;;;;;;37.55;10.16;99241.13;5166907;27;42318;-76
2022/03/03 11:39:49;;;;;;;9.13;7.80;;;;;;;37.45;10.22;99220.84;5130972;27;40525;-77
2022/03/03 11:42:37;;;;;;;9.18;8.35;;;;;;;36.73;9.59;99243.19;5132061;27;42616;-76